Time;durP1;ratioP1;P1;durP2;ratioP2;P2;SDS_P1;SDS_P2;PMS_P1;PMS_P2;Temp;Humidity;BMP_temperature;BMP_pressure;BME280_temperature;BME280_humidity;BME280_pressure;Samples;Min_cycle;Max_cycle;Signal;HPM_P1;HPM_P2
2021/12/21 00:00:15;;;;;;;42.53;10.57;;;-0.60;99.90;;;;;;5082357;28;20770;-69
2021/12/21 00:02:44;;;;;;;40.77;9.40;;;-0.60;99.90;;;;;;5079212;28;20224;-69
2021/12/21 00:05:18;;;;;;;44.13;10.73;;;-0.60;99.90;;;;;;5081977;28;20643;-69
2021/12/21 00:07:46;;;;;;;37.73;9.53;;;-0.60;99.90;;;;;;5084106;28;20219;-69
2021/12/21 00:10:13;;;;;;;48.43;10.90;;;-0.60;99.90;;;;;;5074037;28;20208;-69
2021/12/21 00:12:50;;;;;;;43.33;10.13;;;-0.70;99.90;;;;;;5083656;28;20857;-69
2021/12/21 00:15:23;;;;;;;43.73;10.07;;;-0.60;99.90;;;;;;5085861;28;20295;-69
2021/12/21 00:17:55;;;;;;;42.97;9.53;;;-0.70;99.90;;;;;;5088075;28;20224;-69
2021/12/21 00:20:44;;;;;;;41.17;9.63;;;-0.70;99.90;;;;;;5085150;28;20215;-69
2021/12/21 00:23:30;;;;;;;40.23;9.63;;;-0.70;99.90;;;;;;5080834;28;20211;-70
2021/12/21 00:25:58;;;;;;;41.73;9.53;;;-0.70;99.90;;;;;;5084946;28;20320;-69
2021/12/21 00:28:25;;;;;;;45.70;10.00;;;-0.70;99.90;;;;;;5079188;28;20228;-70
2021/12/21 00:30:53;;;;;;;41.93;9.13;;;-0.70;99.90;;;;;;5087464;28;20361;-70
2021/12/21 00:33:20;;;;;;;43.93;8.93;;;-0.70;99.90;;;;;;5080352;28;20214;-70
2021/12/21 00:35:49;;;;;;;40.57;9.23;;;-0.70;99.90;;;;;;5084553;28;20208;-70
2021/12/21 00:38:16;;;;;;;47.33;10.67;;;-0.70;99.90;;;;;;5086852;28;20232;-70
2021/12/21 00:40:43;;;;;;;35.63;8.33;;;-0.70;99.90;;;;;;5083448;28;20255;-70
2021/12/21 00:43:10;;;;;;;44.50;10.87;;;-0.70;99.90;;;;;;5084269;28;20238;-70
2021/12/21 00:45:36;;;;;;;45.37;9.97;;;-0.70;99.90;;;;;;5082490;28;20673;-70
2021/12/21 00:48:04;;;;;;;39.63;8.90;;;-0.70;99.90;;;;;;5085815;28;20236;-70
2021/12/21 00:50:31;;;;;;;35.83;8.40;;;-0.70;99.90;;;;;;5082444;28;20211;-70
2021/12/21 00:52:59;;;;;;;37.10;8.33;;;-0.70;99.90;;;;;;5082436;28;20681;-70
2021/12/21 00:55:26;;;;;;;43.57;9.57;;;-0.70;99.90;;;;;;5084864;28;20205;-70
2021/12/21 00:57:53;;;;;;;40.40;9.07;;;-0.70;99.90;;;;;;5085228;28;20227;-71
2021/12/21 01:00:23;;;;;;;40.17;10.23;;;-0.70;99.90;;;;;;5082089;28;20630;-70
2021/12/21 01:02:51;;;;;;;44.93;10.17;;;-0.70;99.90;;;;;;5083077;28;20207;-67
2021/12/21 01:05:25;;;;;;;38.60;9.17;;;-0.70;99.90;;;;;;5085615;28;20203;-67
2021/12/21 01:07:55;;;;;;;44.73;9.57;;;-0.80;99.90;;;;;;5085121;28;20637;-67
2021/12/21 01:13:26;;;;;;;41.93;10.03;;;-0.90;99.90;;;;;;5082958;28;20211;-69
2021/12/21 01:16:04;;;;;;;48.07;9.83;;;-0.90;99.90;;;;;;5085139;28;20664;-68
2021/12/21 01:18:37;;;;;;;43.87;9.77;;;-1.00;99.90;;;;;;5085681;28;20437;-68
2021/12/21 01:21:10;;;;;;;42.10;9.93;;;-1.00;99.90;;;;;;5082876;28;20208;-68
2021/12/21 01:26:33;;;;;;;43.47;9.67;;;-1.10;99.90;;;;;;5074827;28;20292;-69
2021/12/21 01:29:09;;;;;;;43.87;9.87;;;-1.10;99.90;;;;;;5085182;28;20220;-70
2021/12/21 01:31:45;;;;;;;42.87;10.33;;;-1.10;99.90;;;;;;5086003;28;20207;-69
2021/12/21 01:34:24;;;;;;;33.97;8.20;;;-1.20;99.90;;;;;;5081125;28;20219;-69
2021/12/21 01:36:57;;;;;;;37.90;8.80;;;-1.20;99.90;;;;;;5081672;28;20746;-69
2021/12/21 01:42:20;;;;;;;51.00;10.53;;;-1.20;99.90;;;;;;5081057;28;20212;-69
2021/12/21 01:50:12;;;;;;;46.93;11.13;;;-1.30;99.90;;;;;;5081204;28;20209;-68
2021/12/21 01:52:39;;;;;;;39.50;9.27;;;-1.30;99.90;;;;;;5086510;28;20230;-68
2021/12/21 01:55:07;;;;;;;37.13;8.77;;;-1.30;99.90;;;;;;5078349;28;20212;-68
2021/12/21 01:57:35;;;;;;;45.33;8.97;;;-1.30;99.90;;;;;;5084605;28;20224;-69
2021/12/21 02:00:02;;;;;;;33.03;7.90;;;-1.40;99.90;;;;;;5083318;28;20211;-69
2021/12/21 02:02:33;;;;;;;41.90;9.47;;;-1.40;99.90;;;;;;5079500;28;20239;-69
2021/12/21 02:05:00;;;;;;;41.50;9.53;;;-1.40;99.90;;;;;;5084540;28;20211;-69
2021/12/21 02:07:27;;;;;;;43.03;9.27;;;-1.40;99.90;;;;;;5081573;28;20242;-69
2021/12/21 02:09:54;;;;;;;40.83;8.43;;;-1.40;99.90;;;;;;5084406;28;20207;-69
2021/12/21 02:12:22;;;;;;;44.73;9.33;;;-1.50;99.90;;;;;;5081132;28;20216;-69
2021/12/21 02:14:56;;;;;;;38.63;9.20;;;-1.50;99.90;;;;;;5079423;28;20219;-69
2021/12/21 02:20:19;;;;;;;42.20;9.30;;;-1.50;99.90;;;;;;5079861;28;20872;-69
2021/12/21 02:22:52;;;;;;;40.00;9.63;;;-1.40;99.90;;;;;;5085104;28;20592;-69
2021/12/21 02:28:32;;;;;;;49.77;10.03;;;-1.40;99.90;;;;;;5095492;27;20621;-67
2021/12/21 02:31:00;;;;;;;37.93;9.00;;;-1.30;99.90;;;;;;5082636;28;20299;-68
2021/12/21 02:33:28;;;;;;;36.17;9.27;;;-1.40;99.90;;;;;;5081683;28;20211;-68
2021/12/21 02:35:57;;;;;;;39.53;9.00;;;-1.40;99.90;;;;;;5084834;28;20247;-67
2021/12/21 02:38:24;;;;;;;38.50;9.37;;;-1.50;99.90;;;;;;5082787;28;20318;-67
2021/12/21 02:40:51;;;;;;;39.00;8.80;;;-1.50;99.90;;;;;;5075622;28;20220;-68
2021/12/21 02:43:20;;;;;;;38.43;8.83;;;-1.60;99.90;;;;;;5086903;28;20218;-68
2021/12/21 02:45:47;;;;;;;32.60;8.43;;;-1.70;99.90;;;;;;5082292;28;20200;-69
2021/12/21 02:48:14;;;;;;;41.10;9.43;;;-1.70;99.90;;;;;;5078511;28;20250;-68
2021/12/21 02:50:42;;;;;;;43.20;8.93;;;-1.70;99.90;;;;;;5067417;28;20213;-68
2021/12/21 02:53:10;;;;;;;44.80;10.73;;;-1.70;99.90;;;;;;5087571;28;20207;-69
2021/12/21 02:55:38;;;;;;;34.60;7.90;;;-1.70;99.90;;;;;;5079278;28;20204;-69
2021/12/21 02:58:05;;;;;;;36.93;8.93;;;-1.70;99.90;;;;;;5080039;28;20219;-69
2021/12/21 03:00:34;;;;;;;40.87;10.00;;;-1.60;99.90;;;;;;5076873;28;20208;-69
2021/12/21 03:03:07;;;;;;;43.43;9.43;;;-1.60;99.90;;;;;;5081725;28;20665;-69
2021/12/21 03:05:36;;;;;;;27.97;7.47;;;-1.60;99.90;;;;;;5083698;28;20295;-69
2021/12/21 03:08:10;;;;;;;30.13;7.97;;;-1.60;99.90;;;;;;5078586;28;20260;-69
2021/12/21 03:10:40;;;;;;;31.17;7.90;;;-1.60;99.90;;;;;;5084987;28;20216;-69
2021/12/21 03:15:52;;;;;;;41.90;8.50;;;-1.70;99.90;;;;;;5083842;28;20196;-69
2021/12/21 03:18:19;;;;;;;38.47;8.07;;;-1.70;99.90;;;;;;5073789;28;20336;-69
2021/12/21 03:20:46;;;;;;;36.13;9.23;;;-1.70;99.90;;;;;;5066160;28;20224;-69
2021/12/21 03:23:13;;;;;;;40.03;9.07;;;-1.70;99.90;;;;;;5084385;28;20223;-69
2021/12/21 03:25:40;;;;;;;38.50;8.60;;;-1.70;99.90;;;;;;5076743;28;20583;-69
2021/12/21 03:28:07;;;;;;;38.03;8.33;;;-1.80;99.90;;;;;;5079696;28;20223;-69
2021/12/21 03:30:34;;;;;;;40.53;9.53;;;-1.70;99.90;;;;;;5087572;28;20219;-69
2021/12/21 03:33:02;;;;;;;36.23;8.00;;;-1.70;99.90;;;;;;5080627;28;20215;-69
2021/12/21 03:35:29;;;;;;;37.53;8.50;;;-1.70;99.90;;;;;;5071457;28;20212;-69
2021/12/21 03:37:56;;;;;;;42.90;8.93;;;0.50;99.90;;;;;;5068878;28;20228;-69
2021/12/21 03:40:23;;;;;;;38.93;8.80;;;-1.80;99.90;;;;;;5073794;28;20216;-70
2021/12/21 03:42:50;;;;;;;33.47;8.13;;;-1.80;99.90;;;;;;5071370;28;20204;-68
2021/12/21 03:45:18;;;;;;;38.67;8.53;;;-1.80;99.90;;;;;;5065547;28;20208;-68
2021/12/21 03:47:44;;;;;;;40.20;8.73;;;-1.80;99.90;;;;;;5061720;28;20236;-68
2021/12/21 03:50:18;;;;;;;38.07;8.63;;;-1.80;99.90;;;;;;5060433;28;20205;-68
2021/12/21 03:52:45;;;;;;;36.73;8.23;;;-1.90;99.90;;;;;;5064537;28;20213;-68
2021/12/21 03:55:12;;;;;;;42.83;9.40;;;-1.90;99.90;;;;;;5070020;28;20477;-69
2021/12/21 03:57:40;;;;;;;37.87;9.27;;;-1.90;99.90;;;;;;5069837;28;20220;-69
2021/12/21 04:00:11;;;;;;;40.60;9.13;;;-2.00;99.90;;;;;;5071929;28;20208;-69
2021/12/21 04:02:38;;;;;;;35.67;8.73;;;-2.00;99.90;;;;;;5065924;28;20208;-69
2021/12/21 04:05:06;;;;;;;41.97;8.70;;;-2.00;99.90;;;;;;5064308;28;20225;-69
2021/12/21 04:07:34;;;;;;;42.97;9.97;;;-2.00;99.90;;;;;;5072198;28;20232;-70
2021/12/21 04:10:01;;;;;;;40.57;8.83;;;-2.00;99.90;;;;;;5074065;28;20216;-69
2021/12/21 04:12:28;;;;;;;26.53;7.57;;;-1.90;99.90;;;;;;5067152;28;20204;-69
2021/12/21 04:14:57;;;;;;;30.57;7.47;;;-1.90;99.90;;;;;;5066577;28;20559;-69
2021/12/21 04:17:24;;;;;;;35.10;8.70;;;-1.90;99.90;;;;;;5068575;28;20232;-69
2021/12/21 04:19:52;;;;;;;35.70;8.57;;;-1.90;99.90;;;;;;5059073;28;20196;-69
2021/12/21 04:22:20;;;;;;;41.07;8.53;;;-2.00;99.90;;;;;;5061774;28;20678;-69
2021/12/21 04:24:49;;;;;;;36.47;8.20;;;-2.00;99.90;;;;;;5062566;28;20214;-69
2021/12/21 04:27:16;;;;;;;41.77;9.43;;;-2.00;99.90;;;;;;5076155;28;20258;-69
2021/12/21 04:29:43;;;;;;;38.03;8.63;;;-2.00;99.90;;;;;;5071034;28;20227;-69
2021/12/21 04:32:10;;;;;;;37.33;8.07;;;-2.00;99.90;;;;;;5064008;28;20668;-69
2021/12/21 04:34:38;;;;;;;29.43;7.90;;;-2.00;99.90;;;;;;5076092;28;20583;-69
2021/12/21 04:37:06;;;;;;;40.13;9.30;;;-2.00;99.90;;;;;;5064778;28;20244;-69
2021/12/21 04:39:38;;;;;;;33.67;8.13;;;-2.00;99.90;;;;;;5069752;28;20208;-69
2021/12/21 04:42:07;;;;;;;34.37;8.17;;;-2.00;99.90;;;;;;5070341;28;20825;-69
2021/12/21 04:44:34;;;;;;;36.40;8.43;;;-2.00;99.90;;;;;;5078837;28;20201;-69
2021/12/21 04:47:02;;;;;;;34.07;8.30;;;-2.00;99.90;;;;;;5080787;28;20269;-69
2021/12/21 04:49:29;;;;;;;41.60;8.70;;;-2.00;99.90;;;;;;5074777;28;20207;-67
2021/12/21 04:51:56;;;;;;;35.03;8.60;;;-2.00;99.90;;;;;;5072339;28;20231;-68
2021/12/21 04:54:23;;;;;;;39.17;9.03;;;-2.00;99.90;;;;;;5071351;28;20610;-68
2021/12/21 04:56:50;;;;;;;38.67;8.67;;;-2.10;99.90;;;;;;5065703;28;20223;-69
2021/12/21 04:59:20;;;;;;;40.60;9.30;;;-2.10;99.90;;;;;;5057321;28;20205;-69
2021/12/21 05:01:46;;;;;;;33.97;8.27;;;-2.10;99.90;;;;;;5070079;28;20205;-69
2021/12/21 05:04:13;;;;;;;34.43;8.57;;;-2.10;99.90;;;;;;5065722;28;20219;-68
2021/12/21 05:06:40;;;;;;;40.73;9.10;;;-2.10;99.90;;;;;;5063271;28;20234;-69
2021/12/21 05:09:12;;;;;;;40.23;8.70;;;-2.10;99.90;;;;;;5066546;28;20207;-68
2021/12/21 05:11:42;;;;;;;39.07;8.67;;;-2.10;99.90;;;;;;5066013;28;20674;-69
2021/12/21 05:14:09;;;;;;;35.90;8.80;;;-2.10;99.90;;;;;;5054054;28;20495;-69
2021/12/21 05:16:38;;;;;;;35.40;8.53;;;-2.10;99.90;;;;;;5056221;28;20475;-68
2021/12/21 05:19:05;;;;;;;44.07;9.97;;;-2.20;99.90;;;;;;5058121;28;20797;-68
2021/12/21 05:21:32;;;;;;;37.47;9.27;;;-2.20;99.90;;;;;;5059987;28;20682;-69
2021/12/21 05:23:59;;;;;;;28.60;6.80;;;-2.20;99.90;;;;;;5063368;28;20205;-68
2021/12/21 05:26:27;;;;;;;41.43;9.00;;;-2.20;99.90;;;;;;5060012;28;20208;-68
2021/12/21 05:28:54;;;;;;;32.83;8.53;;;-2.20;99.90;;;;;;5059105;28;20224;-68
2021/12/21 05:31:21;;;;;;;45.13;9.27;;;-2.20;99.90;;;;;;5057988;28;20223;-68
2021/12/21 05:33:51;;;;;;;37.53;9.20;;;-2.30;99.90;;;;;;5063904;28;20215;-68
2021/12/21 05:36:20;;;;;;;40.10;8.67;;;-2.50;99.90;;;;;;5061643;28;20559;-68
2021/12/21 05:38:50;;;;;;;38.53;9.23;;;-2.30;99.90;;;;;;5068014;28;20211;-68
2021/12/21 05:41:27;;;;;;;37.97;9.13;;;-2.30;99.90;;;;;;5060453;28;20228;-68
2021/12/21 05:43:54;;;;;;;39.17;8.93;;;-2.30;99.90;;;;;;5059851;28;20736;-70
2021/12/21 05:46:21;;;;;;;36.40;8.87;;;-2.40;99.90;;;;;;5052155;28;20201;-68
2021/12/21 05:48:51;;;;;;;31.47;8.17;;;-2.40;99.90;;;;;;5054787;28;20255;-68
2021/12/21 05:51:20;;;;;;;31.20;8.40;;;-2.60;99.90;;;;;;5053799;28;20274;-68
2021/12/21 05:53:47;;;;;;;26.53;8.07;;;-2.40;99.90;;;;;;5062913;28;20689;-68
2021/12/21 05:56:14;;;;;;;30.97;8.30;;;-2.40;99.90;;;;;;5061114;28;20651;-69
2021/12/21 05:58:41;;;;;;;31.40;8.50;;;-2.40;99.90;;;;;;5053335;28;20576;-69
2021/12/21 06:01:08;;;;;;;46.00;9.83;;;-2.40;99.90;;;;;;5056487;28;20227;-69
2021/12/21 06:03:35;;;;;;;32.33;8.33;;;-2.50;99.90;;;;;;5056161;28;20589;-69
2021/12/21 06:06:03;;;;;;;35.30;8.30;;;-2.50;99.90;;;;;;5058414;28;20204;-69
2021/12/21 06:08:30;;;;;;;38.20;9.57;;;-2.50;99.90;;;;;;5063810;28;20601;-70
2021/12/21 06:11:00;;;;;;;33.13;8.67;;;-2.50;99.90;;;;;;5059703;28;20527;-69
2021/12/21 06:13:49;;;;;;;41.20;10.17;;;-2.50;99.90;;;;;;5057597;28;20208;-70
2021/12/21 06:22:42;;;;;;;43.80;10.00;;;-2.40;99.90;;;;;;5058088;28;20236;-68
2021/12/21 06:27:44;;;;;;;32.40;8.37;;;-2.40;99.90;;;;;;5043040;28;20236;-68
2021/12/21 06:30:13;;;;;;;35.00;9.43;;;-2.40;99.90;;;;;;5056799;28;20226;-68
2021/12/21 06:32:40;;;;;;;32.13;8.47;;;-2.40;99.90;;;;;;5061470;28;20873;-68
2021/12/21 06:35:08;;;;;;;39.70;9.10;;;-2.50;99.90;;;;;;5056021;28;20209;-68
2021/12/21 06:37:37;;;;;;;40.77;9.27;;;-2.50;99.90;;;;;;5060011;28;20222;-68
2021/12/21 06:40:05;;;;;;;40.07;9.77;;;-2.50;99.90;;;;;;5066837;28;20216;-67
2021/12/21 06:42:33;;;;;;;38.13;10.50;;;-2.50;99.90;;;;;;5055149;28;20204;-67
2021/12/21 06:45:01;;;;;;;38.80;10.03;;;-2.40;99.90;;;;;;5055524;28;20212;-67
2021/12/21 06:52:56;;;;;;;38.87;9.23;;;-2.40;99.90;;;;;;5032695;28;20244;-67
2021/12/21 06:55:23;;;;;;;39.63;9.70;;;-2.50;99.90;;;;;;5061226;28;20208;-68
2021/12/21 06:57:50;;;;;;;49.37;10.73;;;-2.50;99.90;;;;;;5064014;28;20272;-67
2021/12/21 07:00:18;;;;;;;41.83;10.03;;;-2.50;99.90;;;;;;5059096;28;20212;-69
2021/12/21 07:02:45;;;;;;;37.77;9.87;;;-2.60;99.90;;;;;;5060839;28;20213;-68
2021/12/21 07:05:14;;;;;;;48.40;11.40;;;-2.60;99.90;;;;;;5059492;28;20590;-69
2021/12/21 07:07:41;;;;;;;39.47;10.10;;;-2.60;99.90;;;;;;5055406;28;20302;-68
2021/12/21 07:10:20;;;;;;;42.43;10.17;;;-2.60;99.90;;;;;;5050665;28;20584;-68
2021/12/21 07:18:29;;;;;;;31.57;8.43;;;-2.50;99.90;;;;;;5063469;28;20225;-68
2021/12/21 07:20:57;;;;;;;37.70;9.63;;;-2.50;99.90;;;;;;5059066;28;20280;-68
2021/12/21 07:23:24;;;;;;;35.30;9.37;;;-2.50;99.90;;;;;;5051777;28;20231;-68
2021/12/21 07:25:54;;;;;;;47.83;10.70;;;-2.50;99.90;;;;;;5061322;28;20380;-69
2021/12/21 07:28:21;;;;;;;37.70;10.00;;;-2.50;99.90;;;;;;5047740;23;20319;-66
2021/12/21 07:30:48;;;;;;;47.47;11.27;;;-2.50;99.90;;;;;;5027817;28;20204;-68
2021/12/21 07:33:16;;;;;;;44.40;11.00;;;-2.50;99.90;;;;;;5020456;28;20213;-68
2021/12/21 07:35:44;;;;;;;44.27;10.13;;;-2.50;99.90;;;;;;5027035;28;20217;-68
2021/12/21 07:38:11;;;;;;;37.37;10.07;;;-2.50;99.90;;;;;;5007311;28;20253;-68
2021/12/21 07:40:39;;;;;;;41.57;11.03;;;-2.40;99.90;;;;;;5035456;28;20870;-68
2021/12/21 07:43:07;;;;;;;39.83;10.47;;;-2.40;99.90;;;;;;5006152;28;20220;-68
2021/12/21 07:45:35;;;;;;;44.50;10.93;;;-2.40;99.90;;;;;;5022546;28;20246;-69
2021/12/21 07:48:02;;;;;;;45.57;10.93;;;-2.40;99.90;;;;;;5026670;28;20246;-69
2021/12/21 07:50:29;;;;;;;26.07;8.37;;;-2.40;99.90;;;;;;5029306;28;20299;-70
2021/12/21 07:52:57;;;;;;;38.93;9.50;;;-2.40;99.90;;;;;;5029998;28;20564;-69
2021/12/21 07:55:24;;;;;;;41.60;11.57;;;-2.40;99.90;;;;;;5002074;28;20560;-70
2021/12/21 07:57:51;;;;;;;45.20;11.33;;;-2.40;99.90;;;;;;5030369;28;20315;-69
2021/12/21 08:00:21;;;;;;;36.80;10.17;;;-2.30;99.90;;;;;;5023439;28;20638;-69
2021/12/21 08:02:49;;;;;;;40.37;11.37;;;-2.20;99.90;;;;;;5021433;28;20610;-69
2021/12/21 08:05:17;;;;;;;47.93;12.17;;;-2.10;99.90;;;;;;5022709;28;20213;-69
2021/12/21 08:07:49;;;;;;;42.57;10.90;;;-1.90;99.90;;;;;;5019067;28;20741;-68
2021/12/21 08:10:26;;;;;;;44.53;11.07;;;-1.70;99.90;;;;;;5022161;28;20213;-69
2021/12/21 08:12:54;;;;;;;38.33;10.07;;;-1.60;99.90;;;;;;5029092;28;20225;-69
2021/12/21 08:15:23;;;;;;;36.07;9.77;;;-1.50;99.90;;;;;;5041492;28;20214;-69
2021/12/21 08:17:51;;;;;;;36.87;10.20;;;-1.40;99.90;;;;;;5032646;28;20313;-69
2021/12/21 08:20:18;;;;;;;36.13;9.83;;;-1.00;99.90;;;;;;5029985;28;20212;-69
2021/12/21 08:22:45;;;;;;;41.00;10.90;;;-1.10;99.90;;;;;;5036259;28;20774;-69
2021/12/21 08:25:12;;;;;;;43.63;10.70;;;-0.90;99.90;;;;;;5043432;28;20210;-69
2021/12/21 08:27:39;;;;;;;36.53;10.50;;;-0.70;99.90;;;;;;5026953;28;20253;-69
2021/12/21 08:30:07;;;;;;;39.07;9.57;;;-0.60;99.90;;;;;;5026363;28;20210;-69
2021/12/21 08:32:36;;;;;;;38.17;10.83;;;-0.40;99.90;;;;;;5040327;28;20599;-69
2021/12/21 08:35:03;;;;;;;43.27;10.90;;;-0.40;99.90;;;;;;5039967;28;20220;-69
2021/12/21 08:37:29;;;;;;;34.30;9.43;;;-0.40;99.90;;;;;;5038068;28;20230;-69
2021/12/21 08:39:56;;;;;;;39.73;10.67;;;-0.40;99.90;;;;;;5035613;28;20205;-69
2021/12/21 08:42:25;;;;;;;47.80;11.77;;;-0.40;99.90;;;;;;5018165;28;20217;-77
2021/12/21 08:44:52;;;;;;;50.70;13.23;;;-0.40;99.90;;;;;;5016939;28;20821;-71
2021/12/21 08:47:20;;;;;;;47.57;11.53;;;-0.40;99.90;;;;;;5015853;28;20225;-70
2021/12/21 08:49:49;;;;;;;45.30;11.73;;;-0.40;99.90;;;;;;5020149;28;20226;-70
2021/12/21 08:52:16;;;;;;;48.97;12.43;;;-0.40;99.90;;;;;;5020542;28;20215;-70
2021/12/21 08:54:44;;;;;;;34.17;8.83;;;-0.30;99.90;;;;;;5021570;28;20206;-70
2021/12/21 08:57:11;;;;;;;38.23;9.87;;;-0.30;99.90;;;;;;5038160;28;20225;-70
2021/12/21 08:59:38;;;;;;;48.17;11.97;;;-0.30;99.90;;;;;;5026325;28;20226;-69
2021/12/21 09:02:05;;;;;;;49.10;11.77;;;-0.30;99.90;;;;;;5018204;28;20213;-69
2021/12/21 09:04:33;;;;;;;49.00;12.90;;;-0.20;99.90;;;;;;4997176;28;20214;-69
2021/12/21 09:07:02;;;;;;;39.77;10.73;;;0.00;99.90;;;;;;5022886;28;20245;-69
2021/12/21 09:09:30;;;;;;;43.73;11.13;;;0.00;99.90;;;;;;5023622;28;20229;-71
2021/12/21 09:11:58;;;;;;;46.27;12.37;;;0.20;99.90;;;;;;5016751;28;21058;-70
2021/12/21 09:14:27;;;;;;;41.27;10.77;;;0.20;99.90;;;;;;5012986;28;20309;-70
2021/12/21 09:16:54;;;;;;;41.70;10.93;;;0.30;99.90;;;;;;5020894;28;20230;-70
2021/12/21 09:19:21;;;;;;;42.70;12.00;;;0.30;99.90;;;;;;5020291;28;20292;-70
2021/12/21 09:21:48;;;;;;;53.77;13.10;;;0.40;99.90;;;;;;5017981;28;20219;-70
2021/12/21 09:24:17;;;;;;;52.10;13.27;;;0.50;99.90;;;;;;5014310;28;20375;-69
2021/12/21 09:26:44;;;;;;;57.00;14.30;;;;;;;;;;5018209;28;20236;-70
2021/12/21 09:29:11;;;;;;;53.87;13.73;;;0.90;99.90;;;;;;5018012;28;20285;-69
2021/12/21 09:31:39;;;;;;;45.57;12.70;;;1.00;99.90;;;;;;5022838;28;20205;-71
2021/12/21 09:34:06;;;;;;;44.27;11.80;;;1.20;99.90;;;;;;5022495;28;20606;-71
2021/12/21 09:36:34;;;;;;;50.30;13.20;;;1.40;99.90;;;;;;5028853;28;20234;-71
2021/12/21 09:39:01;;;;;;;30.43;10.23;;;1.60;99.90;;;;;;5007902;28;20744;-70
2021/12/21 09:41:30;;;;;;;35.70;9.87;;;1.70;99.90;;;;;;5023980;28;20211;-70
2021/12/21 09:43:57;;;;;;;42.03;11.47;;;1.90;99.90;;;;;;5031064;28;20684;-70
2021/12/21 09:46:24;;;;;;;43.83;12.27;;;2.20;99.90;;;;;;5018764;28;20212;-70
2021/12/21 09:48:54;;;;;;;36.73;10.40;;;2.20;99.90;;;;;;5010335;28;20559;-69
2021/12/21 09:51:21;;;;;;;33.87;10.57;;;2.30;99.90;;;;;;5015623;28;20300;-69
2021/12/21 09:53:50;;;;;;;40.47;11.20;;;2.50;99.90;;;;;;5016345;28;20206;-69
2021/12/21 09:56:19;;;;;;;45.73;11.87;;;2.80;99.90;;;;;;5018473;28;20202;-70
2021/12/21 09:58:47;;;;;;;39.67;10.93;;;2.80;99.90;;;;;;5011734;28;20360;-68
2021/12/21 10:01:15;;;;;;;51.57;12.60;;;2.90;99.90;;;;;;5011728;28;20481;-70
2021/12/21 10:03:42;;;;;;;35.37;10.60;;;3.10;99.90;;;;;;5022329;28;20214;-69
2021/12/21 10:06:11;;;;;;;33.00;9.73;;;3.20;99.90;;;;;;5022292;28;20603;-70
2021/12/21 10:08:39;;;;;;;47.93;12.80;;;3.40;99.90;;;;;;5020230;28;20601;-69
2021/12/21 10:11:17;;;;;;;54.23;13.50;;;3.50;99.90;;;;;;5018573;28;20734;-69
2021/12/21 10:13:44;;;;;;;46.70;12.00;;;3.60;99.90;;;;;;5011744;28;20658;-69
2021/12/21 10:16:13;;;;;;;39.57;10.20;;;3.80;99.90;;;;;;5012874;28;20217;-69
2021/12/21 10:18:41;;;;;;;37.13;11.20;;;3.80;99.90;;;;;;5028420;28;20672;-69
2021/12/21 10:21:10;;;;;;;44.80;11.17;;;4.00;99.90;;;;;;5035975;28;20233;-69
2021/12/21 10:23:39;;;;;;;36.57;9.73;;;4.10;99.90;;;;;;5032016;28;20216;-69
2021/12/21 10:26:10;;;;;;;42.93;10.77;;;4.30;99.90;;;;;;5027727;28;20214;-69
2021/12/21 10:28:39;;;;;;;34.23;9.30;;;4.40;99.90;;;;;;5021730;28;20292;-69
2021/12/21 10:31:09;;;;;;;32.37;9.33;;;4.60;99.90;;;;;;5043435;28;20696;-69
2021/12/21 10:33:40;;;;;;;29.37;8.40;;;4.80;99.90;;;;;;5020991;28;20225;-69
2021/12/21 10:36:09;;;;;;;29.67;8.57;;;5.00;99.90;;;;;;5034229;28;20242;-69
2021/12/21 10:38:40;;;;;;;28.53;8.47;;;5.10;99.90;;;;;;5037704;28;20240;-70
2021/12/21 10:41:09;;;;;;;36.53;9.73;;;5.10;99.90;;;;;;5038217;28;21716;-70
2021/12/21 10:43:36;;;;;;;31.70;9.30;;;5.10;99.90;;;;;;5020509;28;20210;-70
2021/12/21 10:46:04;;;;;;;39.23;9.43;;;5.10;99.90;;;;;;5024030;28;20591;-70
2021/12/21 10:48:35;;;;;;;36.13;9.33;;;6.90;99.90;;;;;;5005436;28;20233;-70
2021/12/21 10:51:06;;;;;;;38.20;9.27;;;5.10;99.90;;;;;;5026131;28;20702;-70
2021/12/21 10:53:34;;;;;;;33.10;8.67;;;5.10;99.90;;;;;;5026570;28;20561;-70
2021/12/21 10:56:04;;;;;;;31.37;8.10;;;5.10;99.90;;;;;;5027478;28;20750;-69
2021/12/21 10:58:31;;;;;;;34.93;8.10;;;5.20;99.90;;;;;;5034436;28;20234;-69
2021/12/21 11:01:01;;;;;;;32.67;8.20;;;5.20;99.90;;;;;;5026911;28;20209;-69
2021/12/21 11:03:36;;;;;;;38.13;9.10;;;5.30;99.90;;;;;;5024664;28;20206;-70
2021/12/21 11:06:16;;;;;;;30.17;7.67;;;5.50;99.90;;;;;;5033936;28;20279;-70
2021/12/21 11:08:45;;;;;;;29.73;7.50;;;5.60;99.90;;;;;;5032674;28;20311;-69
2021/12/21 11:11:28;;;;;;;42.77;9.83;;;5.70;99.90;;;;;;5036544;28;20235;-69
2021/12/21 11:14:05;;;;;;;30.70;8.07;;;5.80;99.90;;;;;;5031518;28;20285;-70
2021/12/21 11:16:40;;;;;;;28.13;7.10;;;5.90;99.90;;;;;;5032285;28;20230;-69
2021/12/21 11:19:08;;;;;;;;;;;6.00;99.90;;;;;;5015975;28;20201;-69
2021/12/21 11:21:36;;;;;;;;;;;6.10;99.90;;;;;;5029670;28;19936;-70
2021/12/21 11:24:04;;;;;;;;;;;6.30;99.90;;;;;;5029327;28;19929;-70
2021/12/21 11:26:31;;;;;;;;;;;6.70;99.90;;;;;;5030573;28;20555;-69
2021/12/21 11:29:01;;;;;;;;;;;6.70;99.90;;;;;;5030356;28;19929;-70
2021/12/21 11:31:28;;;;;;;;;;;6.90;99.90;;;;;;5030247;28;20008;-69
2021/12/21 11:33:57;;;;;;;;;;;7.10;99.90;;;;;;5025021;28;19929;-70
2021/12/21 11:39:10;;;;;;;;;;;7.40;99.90;;;;;;5019185;28;19968;-70
2021/12/21 11:41:39;;;;;;;;;;;7.50;99.90;;;;;;5005550;28;19940;-69
2021/12/21 11:44:09;;;;;;;;;;;7.60;99.90;;;;;;5029849;28;19925;-70
2021/12/21 11:46:40;;;;;;;;;;;7.70;99.90;;;;;;5028958;28;20709;-70
2021/12/21 11:49:10;;;;;;;;;;;7.70;99.90;;;;;;5032019;28;19968;-70
2021/12/21 11:51:37;;;;;;;;;;;7.50;99.90;;;;;;5033016;28;19933;-70
2021/12/21 11:54:14;;;;;;;;;;;7.50;99.90;;;;;;5029257;28;19925;-69
2021/12/21 11:56:42;;;;;;;;;;;7.70;99.90;;;;;;5029769;28;19937;-70
2021/12/21 11:59:09;;;;;;;;;;;7.80;99.90;;;;;;5030571;28;19952;-71
2021/12/21 12:01:36;;;;;;;;;;;7.90;99.90;;;;;;5026683;28;20308;-71
2021/12/21 12:04:04;;;;;;;;;;;8.00;99.90;;;;;;5033936;28;20040;-70
2021/12/21 12:06:43;;;;;;;;;;;8.20;99.90;;;;;;5031637;28;20558;-70
2021/12/21 12:09:10;;;;;;;;;;;8.20;99.90;;;;;;5028499;28;19925;-70
2021/12/21 12:11:39;;;;;;;;;;;8.30;99.90;;;;;;5036172;28;19925;-71
2021/12/21 12:14:08;;;;;;;;;;;8.30;99.90;;;;;;5022307;28;19930;-71
2021/12/21 12:16:43;;;;;;;;;;;8.30;99.90;;;;;;5017001;28;19940;-70
2021/12/21 12:19:16;;;;;;;;;;;8.30;99.90;;;;;;5033054;28;19928;-70
2021/12/21 12:21:53;;;;;;;;;;;8.30;99.90;;;;;;5027622;28;19929;-69
2021/12/21 12:24:20;;;;;;;;;;;8.40;99.90;;;;;;5028444;28;19929;-69
2021/12/21 12:26:56;;;;;;;;;;;8.50;99.90;;;;;;5024866;28;19936;-72
2021/12/21 12:29:25;;;;;;;;;;;8.60;99.90;;;;;;5030999;28;19936;-71
2021/12/21 12:31:59;;;;;;;;;;;8.60;99.90;;;;;;5008601;28;20358;-71
2021/12/21 12:34:28;;;;;;;;;;;8.60;99.90;;;;;;5023391;28;19929;-71
2021/12/21 12:36:55;;;;;;;;;;;8.70;99.90;;;;;;5032254;28;20023;-71
2021/12/21 12:39:30;;;;;;;;;;;8.70;99.90;;;;;;5025346;28;20016;-71
2021/12/21 12:42:01;;;;;;;;;;;8.90;99.90;;;;;;5030612;28;19929;-71
2021/12/21 12:44:29;;;;;;;;;;;9.00;99.90;;;;;;5032328;28;19936;-70
2021/12/21 12:46:58;;;;;;;;;;;9.10;99.90;;;;;;5034001;28;19929;-71
2021/12/21 12:49:26;;;;;;;;;;;9.10;99.90;;;;;;5040178;28;20017;-72
2021/12/21 12:52:03;;;;;;;;;;;9.10;99.90;;;;;;5031517;28;19940;-72
2021/12/21 12:54:29;;;;;;;;;;;9.10;99.90;;;;;;5025100;28;19936;-72
2021/12/21 12:56:56;;;;;;;;;;;9.20;99.90;;;;;;5019957;28;19933;-72
2021/12/21 12:59:27;;;;;;;;;;;9.20;99.90;;;;;;5030351;28;19928;-71
2021/12/21 13:02:07;;;;;;;;;;;9.20;99.90;;;;;;5020645;28;19944;-70
2021/12/21 13:04:34;;;;;;;;;;;9.20;99.90;;;;;;5026626;28;19928;-72
2021/12/21 13:07:00;;;;;;;;;;;9.20;99.90;;;;;;5029661;28;19933;-72
2021/12/21 13:09:31;;;;;;;;;;;9.20;99.90;;;;;;5026403;28;20044;-71
2021/12/21 13:11:58;;;;;;;;;;;9.20;99.90;;;;;;5002488;28;19995;-71
2021/12/21 13:14:25;;;;;;;;;;;9.20;99.90;;;;;;5009779;28;20023;-71
2021/12/21 13:16:57;;;;;;;;;;;9.20;99.90;;;;;;5010026;28;19940;-73
2021/12/21 13:19:26;;;;;;;;;;;9.10;99.90;;;;;;5023899;28;20294;-73
2021/12/21 13:21:57;;;;;;;;;;;9.10;99.90;;;;;;5018765;28;19980;-73
2021/12/21 13:24:25;;;;;;;;;;;9.00;99.90;;;;;;5021686;28;19929;-72
2021/12/21 13:26:55;;;;;;;;;;;8.90;99.90;;;;;;5018472;28;20020;-72
2021/12/21 13:29:23;;;;;;;;;;;8.90;99.90;;;;;;5027005;28;19932;-72
2021/12/21 13:31:50;;;;;;;;;;;8.80;99.90;;;;;;5017070;28;20325;-72
2021/12/21 13:34:18;;;;;;;;;;;8.80;99.90;;;;;;5024977;28;20874;-73
2021/12/21 13:36:47;;;;;;;;;;;8.70;99.90;;;;;;5020134;28;19937;-73
2021/12/21 13:39:18;;;;;;;;;;;8.70;99.90;;;;;;5021559;28;19944;-73
2021/12/21 13:41:46;;;;;;;;;;;8.50;99.90;;;;;;5023192;28;19974;-73
2021/12/21 13:44:13;;;;;;;;;;;8.50;99.90;;;;;;5025827;28;19936;-73
2021/12/21 13:46:40;;;;;;;;;;;8.40;99.90;;;;;;5025063;28;20007;-72
2021/12/21 13:49:07;;;;;;;;;;;8.40;99.90;;;;;;5023774;28;20377;-73